Monroe City, Texas
Current Conditions -  °F | °C
As of 2:15 PM on Friday 21 Nov 2014 (Local Time) from KBMT Reporting Station
Overcast Overcast  
Wind Chill: 65°   Ceiling: 5500
Heat Index: 65°   Visibility: 10mi
Dew Point: 60°   Wind: 12mph
Humidity: 83%   Direction: 110°ESE
Pressure: 30.14"   Gusts: 18mph
Location:  29.7107°N, 94.5434°W
Report Text: KBMT 212015Z AUTO 11010G16KT 10SM SCT041 OVC055 18/16 A3014 RMK AO2 T01840155
Loading
Personal Weather Stations






























Interactive Weather Map New forecast layout! Learn more

10-Day Weather Forecast

Advertisements
Track Severe Weather on mobile